Time;durP1;ratioP1;P1;durP2;ratioP2;P2;SDS_P1;SDS_P2;PMS_P1;PMS_P2;Temp;Humidity;BMP_temperature;BMP_pressure;BME280_temperature;BME280_humidity;BME280_pressure;Samples;Min_cycle;Max_cycle;Signal;HPM_P1;HPM_P2
2022/06/11 00:01:46;;;;;;;12.35;10.63;;;;;;;14.10;100.00;101634.81;5099959;28;20867;-75
2022/06/11 00:04:20;;;;;;;13.00;11.23;;;;;;;14.18;100.00;101640.19;5105078;28;20143;-76
2022/06/11 00:06:50;;;;;;;13.60;11.60;;;;;;;14.25;100.00;101646.56;5105310;28;20039;-76
2022/06/11 00:09:17;;;;;;;14.43;11.65;;;;;;;14.31;100.00;101651.28;5106339;28;20073;-77
2022/06/11 00:11:43;;;;;;;13.00;11.65;;;;;;;14.36;100.00;101656.19;5106093;28;20909;-75
2022/06/11 00:14:09;;;;;;;18.63;14.13;;;;;;;14.36;100.00;101653.50;5106376;28;20035;-76
2022/06/11 00:16:35;;;;;;;20.92;13.10;;;;;;;14.38;100.00;101647.97;5104969;28;20027;-77
2022/06/11 00:19:03;;;;;;;15.18;12.05;;;;;;;14.51;100.00;101670.63;5106461;28;20017;-76
2022/06/11 00:21:31;;;;;;;15.20;13.15;;;;;;;14.56;100.00;101662.97;5097795;28;20494;-77
2022/06/11 00:23:57;;;;;;;17.33;12.02;;;;;;;14.59;100.00;101659.09;5104955;28;20023;-76
2022/06/11 00:26:23;;;;;;;19.40;12.77;;;;;;;14.67;100.00;101667.16;5087871;28;20038;-76
2022/06/11 00:28:49;;;;;;;15.33;11.93;;;;;;;14.73;100.00;101665.66;5088200;28;20398;-77
2022/06/11 00:31:15;;;;;;;20.35;14.60;;;;;;;14.82;100.00;101671.84;5105758;28;20287;-75
2022/06/11 00:33:40;;;;;;;17.73;14.77;;;;;;;14.87;100.00;101674.91;5096498;28;20027;-77
2022/06/11 00:36:07;;;;;;;22.27;14.57;;;;;;;14.91;100.00;101679.78;5106282;28;20143;-77
2022/06/11 00:38:33;;;;;;;23.60;17.00;;;;;;;14.92;100.00;101675.22;5104941;28;20026;-75
2022/06/11 00:40:59;;;;;;;22.20;17.30;;;;;;;15.00;100.00;101677.91;5106058;28;20435;-77
2022/06/11 00:43:27;;;;;;;26.73;18.27;;;;;;;15.02;100.00;101680.44;5105947;28;20119;-77
2022/06/11 00:46:08;;;;;;;25.33;19.38;;;;;;;14.97;100.00;101673.72;5105735;28;20286;-76
2022/06/11 00:48:40;;;;;;;32.00;19.98;;;;;;;14.95;100.00;101672.19;5094578;28;20032;-76
2022/06/11 00:51:14;;;;;;;25.77;20.33;;;;;;;14.96;100.00;101673.88;5105081;28;20527;-76
2022/06/11 00:53:44;;;;;;;24.42;19.35;;;;;;;15.02;100.00;101670.50;5101775;28;20027;-76
2022/06/11 00:56:16;;;;;;;28.83;20.25;;;;;;;14.96;100.00;101655.91;5108616;28;20032;-75
2022/06/11 00:58:46;;;;;;;25.88;20.35;;;;;;;15.02;100.00;101658.94;5110103;28;20039;-74
2022/06/11 01:01:13;;;;;;;31.20;22.27;;;;;;;15.05;100.00;101653.19;5109336;28;20031;-74
2022/06/11 01:03:42;;;;;;;29.52;21.45;;;;;;;15.04;100.00;101651.53;5109804;28;20054;-76
2022/06/11 01:06:24;;;;;;;27.20;21.75;;;;;;;15.09;100.00;101649.16;5109602;28;20036;-75
2022/06/11 01:09:00;;;;;;;31.98;21.98;;;;;;;15.15;100.00;101643.13;5094707;28;20099;-77
2022/06/11 01:12:18;;;;;;;34.22;24.77;;;;;;;15.12;100.00;101646.97;5109178;28;20118;-74
2022/06/11 01:14:49;;;;;;;32.50;22.73;;;;;;;15.04;100.00;101641.59;5040984;28;20051;-76
2022/06/11 01:17:24;;;;;;;31.42;22.08;;;;;;;15.09;100.00;101647.31;5109669;28;20031;-77
2022/06/11 01:20:18;;;;;;;30.10;22.23;;;;;;;15.12;100.00;101646.97;5107737;28;20130;-77
2022/06/11 01:23:15;;;;;;;35.07;21.93;;;;;;;15.10;100.00;101635.56;5099569;28;20046;-75
2022/06/11 01:26:33;;;;;;;33.20;23.75;;;;;;;15.16;100.00;101637.53;5101236;28;20536;-77
2022/06/11 01:29:11;;;;;;;33.13;23.80;;;;;;;15.21;100.00;101639.72;5049344;28;20040;-77
2022/06/11 01:32:00;;;;;;;31.60;22.75;;;;;;;15.18;100.00;101632.84;5065679;28;20045;-76
2022/06/11 01:34:46;;;;;;;26.05;18.63;;;;;;;15.14;100.00;101625.28;5092705;28;20075;-75
2022/06/11 01:37:43;;;;;;;38.60;23.50;;;;;;;15.15;100.00;101629.66;5108647;28;20523;-75
2022/06/11 01:40:26;;;;;;;36.67;24.40;;;;;;;15.15;100.00;101630.50;5105377;28;20051;-75
2022/06/11 01:42:57;;;;;;;39.03;24.67;;;;;;;15.11;100.00;101629.16;5102325;28;20047;-76
2022/06/11 01:45:40;;;;;;;34.85;24.33;;;;;;;15.11;100.00;101625.63;5107811;28;20039;-76
2022/06/11 01:48:10;;;;;;;34.53;23.58;;;;;;;15.07;100.00;101614.38;5109066;28;20057;-78
2022/06/11 01:50:41;;;;;;;40.65;26.17;;;;;;;15.13;100.00;101623.63;5107241;28;20131;-76
2022/06/11 01:53:45;;;;;;;32.00;24.02;;;;;;;15.11;100.00;101623.78;5107711;28;20039;-74
2022/06/11 01:56:46;;;;;;;42.28;26.80;;;;;;;15.10;100.00;101618.56;5100896;28;20623;-76
2022/06/11 01:59:33;;;;;;;33.92;24.10;;;;;;;15.08;100.00;101615.22;5108137;28;20075;-75
2022/06/11 02:02:46;;;;;;;38.83;25.77;;;;;;;15.06;100.00;101610.00;5107302;28;20391;-77
2022/06/11 02:05:19;;;;;;;35.60;24.25;;;;;;;15.09;100.00;101615.03;5028775;28;20040;-77
2022/06/11 02:08:06;;;;;;;33.65;24.52;;;;;;;15.06;100.00;101617.25;5095381;28;20075;-77
2022/06/11 02:10:51;;;;;;;42.22;26.25;;;;;;;15.02;100.00;101611.34;5089972;28;20035;-77
2022/06/11 02:13:25;;;;;;;36.30;24.20;;;;;;;14.96;100.00;101606.66;5107332;28;20834;-74
2022/06/11 02:16:12;;;;;;;32.35;23.42;;;;;;;14.99;100.00;101611.69;5108500;28;20087;-75
2022/06/11 02:18:39;;;;;;;38.08;25.73;;;;;;;14.99;100.00;101606.31;5100304;28;20512;-76
2022/06/11 02:21:09;;;;;;;41.50;25.85;;;;;;;14.94;100.00;101603.31;5098269;28;20027;-77
2022/06/11 02:23:43;;;;;;;39.60;26.20;;;;;;;14.94;100.00;101600.63;5108638;28;20028;-78
2022/06/11 02:26:14;;;;;;;34.78;24.88;;;;;;;14.92;100.00;101602.66;5106986;28;20388;-77
2022/06/11 02:28:44;;;;;;;39.83;25.70;;;;;;;14.95;100.00;101605.81;5107135;28;20077;-77
2022/06/11 02:31:14;;;;;;;47.40;29.23;;;;;;;14.94;100.00;101614.06;5106431;28;20028;-77
2022/06/11 02:33:41;;;;;;;39.45;24.77;;;;;;;14.85;100.00;101615.09;5108202;28;20106;-77
2022/06/11 02:36:15;;;;;;;40.05;24.83;;;;;;;14.87;100.00;101618.44;5086815;28;20762;-74
2022/06/11 02:38:41;;;;;;;35.08;24.35;;;;;;;14.90;100.00;101612.72;5108243;28;20612;-77
2022/06/11 02:41:11;;;;;;;40.30;25.77;;;;;;;14.89;100.00;101619.97;5107760;28;20028;-75
2022/06/11 02:43:37;;;;;;;38.20;25.70;;;;;;;14.95;100.00;101624.63;5106974;28;20042;-75
2022/06/11 02:46:41;;;;;;;47.83;29.75;;;;;;;14.75;100.00;101609.88;5106708;28;20094;-77
2022/06/11 02:48:51;;;;;;;54.30;32.35;;;;;;;14.82;100.00;101632.41;5101106;28;20044;-77
2022/06/11 02:51:19;;;;;;;41.65;28.83;;;;;;;14.86;100.00;101628.34;5107693;28;20028;-77
2022/06/11 02:53:45;;;;;;;48.80;30.95;;;;;;;14.81;100.00;101635.25;5106492;28;20080;-76
2022/06/11 02:56:11;;;;;;;47.17;30.67;;;;;;;14.75;100.00;101636.78;5089469;28;20019;-76
2022/06/11 02:58:37;;;;;;;45.58;29.40;;;;;;;14.82;100.00;101644.97;5106449;28;20038;-75
2022/06/11 03:01:03;;;;;;;45.40;30.55;;;;;;;14.72;100.00;101639.78;5085907;28;20023;-76
2022/06/11 03:03:29;;;;;;;45.40;29.23;;;;;;;14.67;100.00;101640.28;5106434;28;20054;-77
2022/06/11 03:05:54;;;;;;;44.47;28.40;;;;;;;14.64;100.00;101637.09;5106476;28;20020;-77
2022/06/11 03:08:19;;;;;;;41.70;30.07;;;;;;;14.71;100.00;101655.06;5086380;22;20051;-72
2022/06/11 03:10:45;;;;;;;45.20;27.77;;;;;;;14.75;100.00;101653.72;5025240;28;20030;-73
2022/06/11 03:13:10;;;;;;;44.40;28.47;;;;;;;14.71;100.00;101646.16;5025335;28;20091;-72
2022/06/11 03:15:36;;;;;;;41.57;27.30;;;;;;;14.84;100.00;101653.72;5027220;28;20108;-72
2022/06/11 03:18:02;;;;;;;44.50;27.27;;;;;;;14.83;100.00;101658.25;5018712;28;20044;-74
2022/06/11 03:20:30;;;;;;;38.33;27.35;;;;;;;14.73;100.00;101654.91;5016568;28;20110;-73
2022/06/11 03:22:57;;;;;;;37.10;26.02;;;;;;;14.73;100.00;101655.75;5018242;28;20930;-73
2022/06/11 03:25:22;;;;;;;42.10;26.30;;;;;;;14.79;100.00;101659.59;5015814;28;20033;-72
2022/06/11 03:27:49;;;;;;;;;;;;;;;14.76;100.00;101655.41;5007489;28;20168;-72
2022/06/11 03:30:15;;;;;;;;;;;;;;;14.77;100.00;101675.91;5010248;28;20016;-72
2022/06/11 03:32:41;;;;;;;32.95;24.20;;;;;;;14.86;100.00;101675.91;5017386;28;20087;-72
2022/06/11 03:35:07;;;;;;;47.03;27.43;;;;;;;14.88;100.00;101668.50;5017899;28;20100;-75
2022/06/11 03:37:34;;;;;;;40.63;27.33;;;;;;;14.97;100.00;101676.41;5013627;28;20048;-72
2022/06/11 03:40:00;;;;;;;40.88;26.20;;;;;;;15.03;100.00;101674.91;5014524;28;20033;-73
2022/06/11 03:42:25;;;;;;;;;;;;;;;15.06;100.00;101671.03;5015533;28;20033;-72
2022/06/11 03:44:51;;;;;;;;;;;;;;;15.07;100.00;101670.00;5013774;28;19985;-73
2022/06/11 03:47:17;;;;;;;37.43;23.63;;;;;;;14.99;100.00;101670.88;5014933;28;20390;-74
2022/06/11 03:49:43;;;;;;;36.67;23.95;;;;;;;15.02;100.00;101667.00;5017372;28;20100;-73
2022/06/11 03:52:10;;;;;;;36.20;23.80;;;;;;;15.04;100.00;101659.59;5016893;28;20160;-72
2022/06/11 03:54:36;;;;;;;33.92;23.70;;;;;;;15.09;100.00;101660.75;5013393;28;20069;-72
2022/06/11 03:57:03;;;;;;;29.85;21.85;;;;;;;15.16;100.00;101660.91;5012978;28;20252;-73
2022/06/11 03:59:29;;;;;;;39.30;25.10;;;;;;;15.20;100.00;101668.47;5014188;28;20049;-72
2022/06/11 04:01:54;;;;;;;32.78;22.95;;;;;;;15.23;100.00;101664.59;4995916;28;20053;-72
2022/06/11 04:04:21;;;;;;;33.77;21.00;;;;;;;15.30;100.00;101662.06;5015432;28;20033;-74
2022/06/11 04:06:53;;;;;;;28.02;21.40;;;;;;;15.40;100.00;101668.09;5014185;28;20034;-74
2022/06/11 04:09:26;;;;;;;36.30;23.42;;;;;;;15.19;100.00;101645.28;5020947;28;20498;-74
2022/06/11 04:11:52;;;;;;;31.45;23.08;;;;;;;15.25;100.00;101634.84;5013350;28;20034;-74
2022/06/11 04:14:17;;;;;;;33.25;23.42;;;;;;;15.18;100.00;101640.91;5016073;28;20026;-73
2022/06/11 04:16:49;;;;;;;36.20;25.30;;;;;;;15.25;100.00;101643.75;5016501;28;20036;-73
2022/06/11 04:19:18;;;;;;;33.60;23.10;;;;;;;15.29;100.00;101641.53;5015536;28;20295;-73
2022/06/11 04:21:45;;;;;;;40.22;24.15;;;;;;;15.27;100.00;101635.53;5014326;28;20048;-73
2022/06/11 04:24:11;;;;;;;34.15;24.13;;;;;;;15.30;100.00;101641.38;5021554;28;20029;-73
2022/06/11 04:26:44;;;;;;;29.05;22.23;;;;;;;15.32;100.00;101641.22;5012757;28;20033;-74
2022/06/11 04:29:13;;;;;;;36.22;24.85;;;;;;;15.22;100.00;101635.19;5014838;28;20372;-73
2022/06/11 04:31:39;;;;;;;35.10;24.23;;;;;;;15.16;100.00;101629.47;5015784;28;20096;-73
2022/06/11 04:34:05;;;;;;;35.20;24.63;;;;;;;15.11;100.00;101631.84;5017170;28;20116;-73
2022/06/11 04:36:34;;;;;;;29.55;23.90;;;;;;;15.16;100.00;101640.25;5010318;28;20114;-74
2022/06/11 04:39:00;;;;;;;33.85;24.13;;;;;;;15.23;100.00;101642.25;5017032;28;20052;-73
2022/06/11 04:41:26;;;;;;;41.17;24.87;;;;;;;15.34;100.00;101641.91;5012281;28;20885;-73
2022/06/11 04:43:52;;;;;;;37.28;24.20;;;;;;;15.40;100.00;101638.50;5010831;28;20033;-73
2022/06/11 04:46:18;;;;;;;31.98;23.23;;;;;;;15.57;100.00;101631.25;5013044;28;20537;-73
2022/06/11 04:48:44;;;;;;;33.57;23.50;;;;;;;15.92;100.00;101638.00;4989602;28;20065;-74
2022/06/11 04:51:11;;;;;;;31.77;22.83;;;;;;;15.99;100.00;101621.97;5014319;28;20029;-75
2022/06/11 04:53:37;;;;;;;29.17;22.65;;;;;;;16.17;100.00;101609.06;5016318;28;20048;-75
2022/06/11 04:56:03;;;;;;;23.77;21.15;;;;;;;16.30;100.00;101589.63;5015409;28;20431;-73
2022/06/11 04:58:28;;;;;;;33.30;22.52;;;;;;;16.38;100.00;101569.84;5013823;28;20030;-73
2022/06/11 05:00:54;;;;;;;27.63;21.52;;;;;;;16.50;100.00;101556.78;5012527;28;20084;-73
2022/06/11 05:03:20;;;;;;;25.67;19.83;;;;;;;16.56;100.00;101546.13;5015063;28;20033;-73
2022/06/11 05:05:45;;;;;;;28.43;21.77;;;;;;;16.41;100.00;101542.53;5016361;28;20486;-72
2022/06/11 05:08:13;;;;;;;27.70;21.73;;;;;;;16.59;100.00;101545.75;5016469;28;20038;-72
2022/06/11 05:10:39;;;;;;;28.40;19.98;;;;;;;16.91;100.00;101543.78;4993669;28;20335;-73
2022/06/11 05:13:07;;;;;;;24.90;19.70;;;;;;;16.94;100.00;101542.56;5010829;28;20086;-72
2022/06/11 05:15:33;;;;;;;28.52;19.55;;;;;;;17.11;100.00;101538.66;5017602;28;20441;-73
2022/06/11 05:17:59;;;;;;;22.98;17.90;;;;;;;16.83;100.00;101542.03;5017520;28;20040;-72
2022/06/11 05:20:25;;;;;;;23.35;18.77;;;;;;;16.86;100.00;101544.34;5013165;28;20108;-72
2022/06/11 05:22:50;;;;;;;25.65;19.58;;;;;;;16.82;100.00;101548.41;5013952;28;20141;-72
2022/06/11 05:25:18;;;;;;;24.77;18.37;;;;;;;17.27;100.00;101554.66;5014376;28;20030;-74
2022/06/11 05:27:46;;;;;;;23.67;18.52;;;;;;;17.58;100.00;101550.91;5016281;28;20299;-73
2022/06/11 05:30:25;;;;;;;21.77;16.30;;;;;;;17.97;100.00;101544.31;5016028;28;20033;-74
2022/06/11 05:32:51;;;;;;;22.33;17.77;;;;;;;18.18;100.00;101540.78;5013403;28;20054;-73
2022/06/11 05:35:23;;;;;;;21.10;14.25;;;;;;;18.48;100.00;101536.06;5017543;28;20565;-74
2022/06/11 05:37:51;;;;;;;19.10;15.55;;;;;;;18.96;100.00;101514.59;5027485;28;20506;-73
2022/06/11 05:40:19;;;;;;;16.38;14.23;;;;;;;19.38;100.00;101492.91;5010927;28;20124;-73
2022/06/11 05:42:47;;;;;;;14.60;12.13;;;;;;;20.25;100.00;101488.50;5018185;28;20056;-72
2022/06/11 05:45:18;;;;;;;17.00;12.98;;;;;;;20.29;100.00;101448.28;5019423;28;20499;-73
2022/06/11 05:47:44;;;;;;;14.85;11.05;;;;;;;21.07;100.00;101422.00;5021123;28;20087;-73
2022/06/11 05:50:15;;;;;;;16.02;11.82;;;;;;;20.87;100.00;101404.97;5018107;28;20445;-72
2022/06/11 05:52:45;;;;;;;12.48;10.07;;;;;;;21.41;100.00;101400.97;5016826;28;20030;-72
2022/06/11 05:55:13;;;;;;;14.15;10.30;;;;;;;21.84;100.00;101402.13;5016712;28;20052;-73
2022/06/11 05:57:39;;;;;;;15.38;10.38;;;;;;;22.18;100.00;101329.25;5016286;28;20022;-72
2022/06/11 06:00:08;;;;;;;12.73;8.77;;;;;;;22.36;100.00;101323.00;5016356;28;20514;-73
2022/06/11 06:02:40;;;;;;;16.17;10.13;;;;;;;22.73;100.00;101251.19;5014341;28;20098;-73
2022/06/11 06:05:07;;;;;;;13.88;9.13;;;;;;;22.20;100.00;101245.56;5016668;28;20030;-73
2022/06/11 06:07:33;;;;;;;10.55;9.50;;;;;;;21.85;100.00;101276.88;5011881;28;20028;-73
2022/06/11 06:09:58;;;;;;;12.45;8.60;;;;;;;22.32;100.00;101368.88;5019364;28;20038;-73
2022/06/11 06:12:24;;;;;;;15.05;9.40;;;;;;;21.08;100.00;101380.22;5016982;28;20026;-73
2022/06/11 06:14:49;;;;;;;13.63;11.00;;;;;;;20.34;100.00;101415.94;5015215;28;20479;-73
2022/06/11 06:17:15;;;;;;;15.63;11.73;;;;;;;20.17;100.00;101451.59;5017871;28;20033;-72
2022/06/11 06:19:40;;;;;;;17.50;11.37;;;;;;;20.28;100.00;101487.28;5019556;28;20033;-73
2022/06/11 06:22:06;;;;;;;15.73;12.10;;;;;;;20.16;100.00;101462.69;5018028;28;20499;-75
2022/06/11 06:24:34;;;;;;;18.53;12.10;;;;;;;20.36;100.00;101477.03;5016301;28;20088;-73
2022/06/11 06:27:00;;;;;;;13.70;10.88;;;;;;;21.12;100.00;101445.81;5008252;28;20284;-73
2022/06/11 06:29:26;;;;;;;9.80;8.85;;;;;;;21.13;100.00;101439.31;5018771;28;20029;-73
2022/06/11 06:31:52;;;;;;;16.88;11.73;;;;;;;20.77;100.00;101382.91;5019242;28;20055;-73
2022/06/11 06:34:17;;;;;;;20.20;12.07;;;;;;;20.77;100.00;101442.59;5017506;28;20037;-73
2022/06/11 06:36:43;;;;;;;15.87;9.87;;;;;;;21.13;100.00;101455.59;5014793;28;20022;-73
2022/06/11 06:39:09;;;;;;;12.70;9.40;;;;;;;21.10;100.00;101485.06;5009523;28;20061;-73
2022/06/11 06:41:34;;;;;;;16.15;12.00;;;;;;;21.27;100.00;101421.06;5019051;28;20121;-73
2022/06/11 06:44:00;;;;;;;15.20;10.40;;;;;;;21.38;100.00;101433.97;5018017;28;20033;-73
2022/06/11 06:46:26;;;;;;;23.37;10.90;;;;;;;20.85;100.00;101412.50;5009456;28;20260;-73
2022/06/11 06:48:51;;;;;;;13.80;8.35;;;;;;;21.35;100.00;101455.28;5015608;28;20036;-73
2022/06/11 06:51:18;;;;;;;18.77;11.13;;;;;;;21.20;100.00;101437.41;5015954;28;20549;-73
2022/06/11 06:53:44;;;;;;;13.18;10.25;;;;;;;20.81;100.00;101471.81;5012489;28;20045;-73
2022/06/11 06:56:11;;;;;;;11.25;8.38;;;;;;;21.03;100.00;101485.94;5017117;28;20027;-73
2022/06/11 06:58:36;;;;;;;18.88;9.38;;;;;;;21.07;100.00;101423.88;5015372;28;20034;-73
2022/06/11 07:01:03;;;;;;;17.57;10.87;;;;;;;20.84;100.00;101408.13;5015360;28;20091;-73
2022/06/11 07:03:28;;;;;;;16.40;9.68;;;;;;;20.82;100.00;101461.78;5009542;28;20029;-74
2022/06/11 07:05:54;;;;;;;14.57;10.33;;;;;;;20.64;100.00;101501.25;5014429;28;20024;-73
2022/06/11 07:08:20;;;;;;;17.43;11.30;;;;;;;20.52;100.00;101546.31;5015895;28;20025;-73
2022/06/11 07:10:51;;;;;;;16.13;10.43;;;;;;;20.51;100.00;101541.06;5013703;28;20025;-73
2022/06/11 07:13:17;;;;;;;20.20;10.85;;;;;;;20.42;100.00;101535.03;5016788;28;20574;-73
2022/06/11 07:15:45;;;;;;;14.02;9.30;;;;;;;20.41;100.00;101503.53;5014426;28;20030;-73
2022/06/11 07:18:17;;;;;;;11.30;7.88;;;;;;;20.40;100.00;101474.75;5009511;28;20030;-73
2022/06/11 07:20:46;;;;;;;13.82;8.63;;;;;;;20.30;100.00;101491.44;5018530;28;20030;-74
2022/06/11 07:23:14;;;;;;;15.77;8.98;;;;;;;20.35;100.00;101501.66;5015583;28;20462;-73
2022/06/11 07:25:43;;;;;;;13.55;7.40;;;;;;;20.20;100.00;101494.56;5013498;28;20394;-74
2022/06/11 07:28:22;;;;;;;14.90;7.97;;;;;;;19.66;100.00;101462.97;5014027;28;20014;-73
2022/06/11 07:30:48;;;;;;;13.57;10.45;;;;;;;19.29;100.00;101494.97;5001144;28;20038;-73
2022/06/11 07:33:19;;;;;;;14.93;7.97;;;;;;;19.57;100.00;101485.88;5008730;28;20022;-73
2022/06/11 07:35:47;;;;;;;10.27;6.57;;;;;;;19.97;100.00;101508.53;5008161;28;20030;-73
2022/06/11 07:38:14;;;;;;;13.88;8.43;;;;;;;20.08;100.00;101504.34;5007158;28;20112;-73
2022/06/11 07:40:40;;;;;;;10.70;7.82;;;;;;;20.08;100.00;101504.34;5002921;28;20065;-74
2022/06/11 07:43:07;;;;;;;16.52;8.00;;;;;;;20.48;100.00;101506.25;5004782;28;20454;-73
2022/06/11 07:45:34;;;;;;;14.27;8.00;;;;;;;20.87;100.00;101479.06;5006069;28;20113;-74
2022/06/11 07:48:00;;;;;;;12.25;6.03;;;;;;;21.15;100.00;101414.66;5007370;28;20409;-73
2022/06/11 07:50:25;;;;;;;11.05;6.05;;;;;;;21.67;100.00;101415.44;4988949;28;20429;-74
2022/06/11 07:52:51;;;;;;;9.90;5.90;;;;;;;21.76;100.00;101397.81;5000506;28;20038;-74
2022/06/11 07:55:17;;;;;;;8.32;5.68;;;;;;;21.12;100.00;101241.34;5003228;28;20549;-74
2022/06/11 07:57:43;;;;;;;;;;;;;;;20.72;100.00;101253.31;4989696;28;20425;-74
2022/06/11 08:00:13;;;;;;;12.32;5.22;;;;;;;21.74;100.00;101303.97;5007576;28;19929;-74
2022/06/11 08:02:38;;;;;;;11.40;6.47;;;;;;;22.11;100.00;101231.44;5004980;28;20501;-74
2022/06/11 08:05:05;;;;;;;12.48;5.03;;;;;;;22.55;100.00;101194.06;5008804;28;20029;-74
2022/06/11 08:07:31;;;;;;;8.63;4.80;;;;;;;22.99;100.00;101211.00;4989647;28;20501;-74
2022/06/11 08:09:58;;;;;;;8.35;4.78;;;;;;;22.77;100.00;101083.59;5005850;28;20044;-74
2022/06/11 08:12:26;;;;;;;6.30;3.85;;;;;;;22.11;100.00;101193.38;5016443;28;20042;-74
2022/06/11 08:14:56;;;;;;;8.07;4.72;;;;;;;22.14;100.00;101247.28;5016280;28;20029;-74
2022/06/11 08:17:32;;;;;;;10.10;4.43;;;;;;;21.73;100.00;101183.56;5007901;28;20061;-74
2022/06/11 08:19:58;;;;;;;8.13;5.03;;;;;;;21.41;100.00;101232.56;5008640;28;20393;-74
2022/06/11 08:22:23;;;;;;;9.55;4.78;;;;;;;21.57;100.00;101227.63;5011761;28;20505;-74
2022/06/11 08:24:49;;;;;;;8.13;4.37;;;;;;;21.81;100.00;101215.88;5009076;28;20064;-74
2022/06/11 08:27:15;;;;;;;10.97;5.10;;;;;;;21.99;100.00;101215.06;5006420;28;20782;-74
2022/06/11 08:29:41;;;;;;;8.98;4.28;;;;;;;21.89;100.00;101215.59;5005054;28;20044;-74
2022/06/11 08:32:07;;;;;;;9.60;3.90;;;;;;;21.63;100.00;101102.59;5005166;28;20026;-74
2022/06/11 08:34:37;;;;;;;6.75;3.42;;;;;;;22.11;100.00;101160.75;5005808;28;20034;-74
2022/06/11 08:37:03;;;;;;;7.30;3.38;;;;;;;22.56;100.00;101059.69;5011038;28;20444;-74
2022/06/11 08:39:28;;;;;;;10.43;3.95;;;;;;;23.36;100.00;101217.09;5007279;28;20056;-74
2022/06/11 08:41:56;;;;;;;6.60;3.60;;;;;;;23.92;100.00;101115.88;5005349;28;20498;-74
2022/06/11 08:44:22;;;;;;;8.38;3.72;;;;;;;23.16;100.00;100953.28;5005783;28;20275;-73
2022/06/11 08:46:50;;;;;;;7.40;3.10;;;;;;;24.25;100.00;101095.22;5006505;28;20026;-74
2022/06/11 08:49:18;;;;;;;8.70;4.07;;;;;;;23.00;100.00;101038.44;5007810;28;20109;-74
2022/06/11 08:51:55;;;;;;;9.77;3.58;;;;;;;23.12;100.00;101092.88;5004339;28;20034;-74
2022/06/11 08:54:25;;;;;;;5.18;3.30;;;;;;;23.05;100.00;101136.56;4993300;28;20485;-74
2022/06/11 08:57:12;;;;;;;9.90;3.80;;;;;;;21.78;100.00;101172.84;5006348;28;20266;-73
2022/06/11 09:00:09;;;;;;;10.60;3.92;;;;;;;22.08;100.00;101183.78;5008822;28;20126;-74
2022/06/11 09:02:59;;;;;;;6.30;3.53;;;;;;;21.73;100.00;101182.72;4999065;28;20034;-73
2022/06/11 09:05:46;;;;;;;8.38;3.55;;;;;;;21.26;100.00;101207.63;5006157;28;20064;-74
2022/06/11 09:08:14;;;;;;;7.57;4.03;;;;;;;20.44;100.00;101161.44;5037402;22;20044;-76
2022/06/11 09:11:00;;;;;;;8.07;3.15;;;;;;;20.17;100.00;101245.59;5065506;28;20055;-76
2022/06/11 09:14:02;;;;;;;83.13;68.63;;;;;;;20.00;100.00;101239.81;5066948;28;20119;-77
2022/06/11 09:16:50;;;;;;;317.33;255.00;;;;;;;20.56;100.00;101153.44;5068945;28;20055;-75
2022/06/11 09:19:40;;;;;;;135.00;121.43;;;;;;;22.01;100.00;101239.28;5067521;28;20041;-76
2022/06/11 09:22:30;;;;;;;14.07;6.63;;;;;;;22.99;100.00;101053.09;5068514;28;20911;-76
2022/06/11 09:25:29;;;;;;;20.95;5.65;;;;;;;22.74;100.00;100947.19;5065894;28;20032;-74
2022/06/11 09:28:06;;;;;;;7.38;3.63;;;;;;;23.73;100.00;101071.56;5062660;28;20117;-76
2022/06/11 09:30:41;;;;;;;6.40;4.13;;;;;;;25.08;97.37;101123.66;5042298;28;20502;-76
2022/06/11 09:33:15;;;;;;;9.27;5.90;;;;;;;25.51;83.98;100946.34;5066917;28;20064;-75
2022/06/11 09:36:03;;;;;;;7.20;3.92;;;;;;;25.30;81.51;100912.50;5068183;28;20058;-74
2022/06/11 09:38:48;;;;;;;8.02;4.13;;;;;;;24.78;82.83;100870.91;5067121;28;20056;-75
2022/06/11 09:41:32;;;;;;;11.63;6.45;;;;;;;24.71;84.17;100911.22;5067319;28;20060;-76
2022/06/11 09:44:01;;;;;;;16.60;11.82;;;;;;;23.88;96.94;100984.66;5064998;28;20068;-76
2022/06/11 09:46:33;;;;;;;40.35;28.77;;;;;;;23.01;100.00;101021.03;5066763;28;20096;-75
2022/06/11 09:49:15;;;;;;;14.10;8.43;;;;;;;24.23;95.12;101051.78;5066905;28;20477;-77
2022/06/11 09:51:51;;;;;;;19.42;14.55;;;;;;;24.32;88.99;100967.66;5067764;28;20098;-74
2022/06/11 09:54:34;;;;;;;26.15;17.25;;;;;;;25.10;92.60;101142.50;5066625;28;20400;-76
2022/06/11 09:57:19;;;;;;;24.20;15.60;;;;;;;26.38;79.92;101084.81;5068198;28;20028;-76
2022/06/11 09:59:51;;;;;;;;;;;;;;;25.93;75.08;100905.47;5066924;28;20068;-76
2022/06/11 10:02:31;;;;;;;20.92;14.52;;;;;;;24.18;81.13;100770.78;5067718;28;19961;-74
2022/06/11 10:04:59;;;;;;;22.48;16.92;;;;;;;22.90;77.93;100586.31;5046538;28;20060;-76
2022/06/11 10:07:30;;;;;;;9.68;5.22;;;;;;;22.90;86.39;100826.69;5065902;28;20435;-77
2022/06/11 10:10:19;;;;;;;13.20;7.85;;;;;;;24.37;79.23;100949.47;5066054;28;20032;-74
2022/06/11 10:13:02;;;;;;;9.88;4.60;;;;;;;24.52;74.11;100834.28;5044358;28;20491;-76
2022/06/11 10:15:35;;;;;;;6.10;3.97;;;;;;;24.72;68.73;100729.97;5082846;28;20028;-77
2022/06/11 10:18:08;;;;;;;4.13;2.90;;;;;;;25.47;70.06;100913.22;5065985;28;20493;-75
2022/06/11 10:20:40;;;;;;;6.43;2.88;;;;;;;25.79;69.97;100931.59;5067219;28;20116;-77
2022/06/11 10:23:43;;;;;;;8.88;3.17;;;;;;;26.13;67.16;100926.72;5066356;28;20033;-75
2022/06/11 10:26:18;;;;;;;6.15;3.42;;;;;;;24.58;71.86;100756.00;5066635;28;20394;-76
2022/06/11 10:28:44;;;;;;;11.23;4.45;;;;;;;24.46;70.31;100756.13;5043674;28;20040;-76
2022/06/11 10:31:18;;;;;;;6.90;3.03;;;;;;;25.41;66.69;100822.19;5066236;28;20101;-75
2022/06/11 10:33:56;;;;;;;6.22;3.53;;;;;;;24.97;65.63;100729.41;5067514;28;20064;-76
2022/06/11 10:36:30;;;;;;;5.40;2.38;;;;;;;25.80;62.66;100802.81;5067642;28;20487;-75
2022/06/11 10:38:55;;;;;;;5.97;2.90;;;;;;;25.33;57.89;100579.44;5066070;28;20027;-76
2022/06/11 10:41:27;;;;;;;3.92;2.20;;;;;;;25.52;61.34;100806.69;5066123;28;20030;-76
2022/06/11 10:44:26;;;;;;;6.40;2.10;;;;;;;25.45;54.82;100576.50;5065929;28;20032;-75
2022/06/11 10:46:52;;;;;;;5.93;2.13;;;;;;;26.31;58.06;100887.97;5035619;28;20048;-76
2022/06/11 10:49:19;;;;;;;7.10;2.63;;;;;;;26.51;54.19;100766.81;5067072;28;20028;-76
2022/06/11 10:52:01;;;;;;;8.68;2.72;;;;;;;26.49;52.60;100667.72;5066880;28;20031;-76
2022/06/11 10:54:26;;;;;;;7.53;3.03;;;;;;;26.49;57.22;100875.75;5067113;28;20547;-75
2022/06/11 10:56:57;;;;;;;7.10;2.60;;;;;;;26.28;56.61;100800.94;5067120;28;20021;-75
2022/06/11 10:59:43;;;;;;;11.95;3.75;;;;;;;26.93;53.15;100782.31;5065584;28;20421;-75
2022/06/11 11:02:30;;;;;;;;;;;;;;;26.88;55.37;100866.41;5066828;28;20618;-76
2022/06/11 11:04:58;;;;;;;4.55;2.58;;;;;;;27.02;48.91;100607.28;5066891;28;19916;-76
2022/06/11 11:07:24;;;;;;;5.70;2.10;;;;;;;27.35;52.35;100835.28;5049049;28;20020;-76
2022/06/11 11:09:55;;;;;;;5.05;2.28;;;;;;;26.89;52.29;100709.16;5066931;28;20036;-76
2022/06/11 11:12:35;;;;;;;3.92;2.53;;;;;;;26.69;53.06;100726.38;5065615;28;20118;-76
2022/06/11 11:15:16;;;;;;;4.75;2.03;;;;;;;25.89;54.00;100592.59;5065572;28;20074;-76
2022/06/11 11:17:49;;;;;;;5.60;3.03;;;;;;;25.51;59.54;100739.44;5038297;28;20051;-76
2022/06/11 11:20:30;;;;;;;4.93;2.80;;;;;;;24.97;60.73;100679.44;5065182;28;20040;-76
2022/06/11 11:23:00;;;;;;;5.63;3.17;;;;;;;25.25;70.35;100993.31;5064946;28;20044;-75
2022/06/11 11:25:33;;;;;;;9.50;2.50;;;;;;;25.88;56.25;100730.41;5037395;28;20150;-75
2022/06/11 11:27:59;;;;;;;12.65;2.95;;;;;;;26.25;54.14;100740.47;5062395;28;20025;-76
2022/06/11 11:30:35;;;;;;;4.28;2.35;;;;;;;26.46;54.61;100766.81;5065312;28;20187;-76